createdAt,value
2018-09-10T00:00:54.914Z,96603.91
2018-09-10T00:03:24.789Z,96602.98
2018-09-10T00:05:54.630Z,96597.61
2018-09-10T00:08:24.588Z,96602.85
2018-09-10T00:10:54.738Z,96610.09
2018-09-10T00:13:24.588Z,96607.20
2018-09-10T00:15:54.442Z,96604.03
2018-09-10T00:18:24.364Z,96597.81
2018-09-10T00:24:30.166Z,96606.09
2018-09-10T00:27:00.031Z,96606.48
2018-09-10T00:29:29.841Z,96604.99
2018-09-10T00:31:59.663Z,96610.27
2018-09-10T00:34:29.500Z,96610.49
2018-09-10T00:36:59.364Z,96612.91
2018-09-10T00:39:29.186Z,96610.46
2018-09-10T00:41:59.016Z,96604.66
2018-09-10T00:44:28.856Z,96609.98
2018-09-10T00:46:58.744Z,96605.19
2018-09-10T00:49:28.734Z,96601.20
2018-09-10T00:51:58.604Z,96603.03
2018-09-10T00:54:28.449Z,96613.34
2018-09-10T00:56:58.304Z,96620.15
2018-09-10T00:59:28.136Z,96611.76
2018-09-10T01:01:58.095Z,96618.05
2018-09-10T01:04:27.909Z,96610.45
2018-09-10T01:06:57.985Z,96613.35
2018-09-10T01:09:27.842Z,96622.81
2018-09-10T01:11:57.676Z,96616.92
2018-09-10T01:14:27.511Z,96616.34
2018-09-10T01:16:57.379Z,96619.72
2018-09-10T01:19:27.878Z,96614.28
2018-09-10T01:21:57.730Z,96613.56
2018-09-10T01:24:27.694Z,96609.51
2018-09-10T01:26:57.520Z,96609.30
2018-09-10T01:29:27.398Z,96610.83
2018-09-10T01:31:57.254Z,96609.48
2018-09-10T01:34:32.336Z,96609.49
2018-09-10T01:37:02.180Z,96607.98
2018-09-10T01:39:32.102Z,96616.88
2018-09-10T01:42:02.144Z,96623.34
2018-09-10T01:44:32.127Z,96618.07
2018-09-10T01:47:02.311Z,96622.05
2018-09-10T01:49:32.178Z,96620.70
2018-09-10T01:52:01.990Z,96621.15
2018-09-10T01:54:32.205Z,96618.95
2018-09-10T01:57:02.075Z,96618.09
2018-09-10T01:59:31.919Z,96624.95
2018-09-10T02:02:01.800Z,96619.69
2018-09-10T02:04:31.680Z,96615.98
2018-09-10T02:07:01.744Z,96616.66
2018-09-10T02:09:31.633Z,96612.03
2018-09-10T02:12:03.552Z,96609.72
2018-09-10T02:14:33.430Z,96606.63
2018-09-10T02:17:03.596Z,96603.09
2018-09-10T02:19:33.689Z,96595.80
2018-09-10T02:22:03.549Z,96597.89
2018-09-10T02:24:33.377Z,96593.03
2018-09-10T02:27:03.209Z,96587.05
2018-09-10T02:29:33.075Z,96585.27
2018-09-10T02:32:03.039Z,96586.34
2018-09-10T02:34:32.869Z,96590.08
2018-09-10T02:37:02.717Z,96589.94
2018-09-10T02:39:32.573Z,96588.77
2018-09-10T02:42:02.387Z,96595.34
2018-09-10T02:44:32.691Z,96592.63
2018-09-10T02:47:02.568Z,96592.42
2018-09-10T02:49:32.523Z,96589.72
2018-09-10T02:52:02.698Z,96595.58
2018-09-10T02:54:32.660Z,96593.40
2018-09-10T02:57:02.627Z,96589.07
2018-09-10T02:59:32.538Z,96593.90
2018-09-10T03:02:02.414Z,96594.06
2018-09-10T03:04:32.536Z,96596.56
2018-09-10T03:07:02.360Z,96599.39
2018-09-10T03:13:07.883Z,96612.39
2018-09-10T03:15:37.710Z,96618.13
2018-09-10T03:18:07.604Z,96614.09
2018-09-10T03:20:37.421Z,96613.09
2018-09-10T03:23:07.636Z,96615.39
2018-09-10T03:25:37.655Z,96609.53
2018-09-10T03:28:07.449Z,96613.39
2018-09-10T03:30:37.372Z,96611.64
2018-09-10T03:33:07.270Z,96612.64
2018-09-10T03:35:37.223Z,96619.24
2018-09-10T03:38:07.328Z,96629.03
2018-09-10T03:40:37.174Z,96627.45
2018-09-10T03:43:07.072Z,96635.67
2018-09-10T03:45:36.896Z,96639.74
2018-09-10T03:48:06.765Z,96635.88
2018-09-10T03:50:36.712Z,96631.78
2018-09-10T03:53:06.594Z,96623.60
2018-09-10T03:55:36.420Z,96625.93
2018-09-10T03:58:06.296Z,96627.89
2018-09-10T04:00:36.759Z,96637.92
2018-09-10T04:03:06.898Z,96647.93
2018-09-10T04:05:36.720Z,96646.73
2018-09-10T04:08:07.424Z,96651.02
2018-09-10T04:10:37.276Z,96652.22
2018-09-10T04:13:07.231Z,96661.20
2018-09-10T04:15:37.346Z,96663.41
2018-09-10T04:18:07.593Z,96659.88
2018-09-10T04:20:37.480Z,96652.27
2018-09-10T04:23:07.767Z,96653.23
2018-09-10T04:25:37.657Z,96653.99
2018-09-10T04:28:08.471Z,96665.16
2018-09-10T04:30:38.348Z,96659.50
2018-09-10T04:33:08.249Z,96661.28
2018-09-10T04:35:38.128Z,96669.30
2018-09-10T04:38:07.934Z,96667.31
2018-09-10T04:40:38.539Z,96666.76
2018-09-10T04:43:08.746Z,96677.29
2018-09-10T04:45:38.631Z,96681.60
2018-09-10T04:48:08.430Z,96679.28
2018-09-10T04:50:38.328Z,96683.59
2018-09-10T04:53:08.314Z,96683.57
2018-09-10T04:55:38.199Z,96686.31
2018-09-10T04:58:08.194Z,96682.05
2018-09-10T05:00:38.247Z,96688.06
2018-09-10T05:03:08.218Z,96691.95
2018-09-10T05:05:38.282Z,96690.97
2018-09-10T05:08:08.060Z,96699.02
2018-09-10T05:10:37.890Z,96704.48
2018-09-10T05:13:07.806Z,96699.02
2018-09-10T05:15:37.652Z,96699.59
2018-09-10T05:18:07.485Z,96696.83
2018-09-10T05:25:03.309Z,96707.61
2018-09-10T05:27:33.289Z,96708.59
2018-09-10T05:30:03.125Z,96714.08
2018-09-10T05:32:33.122Z,96718.39
2018-09-10T05:35:03.068Z,96710.96
2018-09-10T05:37:32.840Z,96711.14
2018-09-10T05:40:02.657Z,96716.81
2018-09-10T05:42:32.504Z,96718.77
2018-09-10T05:45:02.339Z,96717.98
2018-09-10T05:47:32.219Z,96729.73
2018-09-10T05:50:02.207Z,96724.44
2018-09-10T05:52:32.956Z,96731.69
2018-09-10T05:55:02.853Z,96736.99
2018-09-10T05:57:32.684Z,96735.02
2018-09-10T06:00:02.497Z,96735.61
2018-09-10T06:02:32.307Z,96732.84
2018-09-10T06:05:02.017Z,96732.44
2018-09-10T06:07:31.825Z,96730.07
2018-09-10T06:10:01.569Z,96717.36
2018-09-10T06:12:31.341Z,96719.72
2018-09-10T06:15:01.136Z,96720.09
2018-09-10T06:17:30.987Z,96723.17
2018-09-10T06:20:00.747Z,96725.88
2018-09-10T06:22:30.504Z,96730.20
2018-09-10T06:25:00.353Z,96725.45
2018-09-10T06:27:30.179Z,96729.78
2018-09-10T06:30:00.281Z,96732.72
2018-09-10T06:32:30.005Z,96733.95
2018-09-10T06:35:00.390Z,96730.09
2018-09-10T06:37:30.861Z,96733.58
2018-09-10T06:40:01.221Z,96739.25
2018-09-10T06:42:31.709Z,96742.90
2018-09-10T06:45:02.060Z,96749.28
2018-09-10T06:47:32.451Z,96749.77
2018-09-10T06:50:03.103Z,96762.20
2018-09-10T06:52:33.473Z,96755.14
2018-09-10T06:55:03.883Z,96752.47
2018-09-10T06:57:34.555Z,96758.45
2018-09-10T07:00:04.995Z,96757.06
2018-09-10T07:02:35.535Z,96755.61
2018-09-10T07:05:06.741Z,96758.91
2018-09-10T07:07:37.147Z,96764.24
2018-09-10T07:10:08.541Z,96765.66
2018-09-10T07:12:39.003Z,96771.75
2018-09-10T07:15:10.267Z,96773.55
2018-09-10T07:17:40.753Z,96774.84
2018-09-10T07:20:11.156Z,96770.67
2018-09-10T07:22:41.673Z,96773.68
2018-09-10T07:25:12.043Z,96781.00
2018-09-10T07:27:42.653Z,96779.14
2018-09-10T07:30:13.021Z,96774.45
2018-09-10T07:32:43.385Z,96767.80
2018-09-10T07:35:13.735Z,96768.56
2018-09-10T07:37:44.147Z,96769.08
2018-09-10T07:40:14.639Z,96766.31
2018-09-10T07:42:44.815Z,96772.03
2018-09-10T07:45:14.939Z,96770.07
2018-09-10T07:47:45.661Z,96773.55
2018-09-10T07:50:15.789Z,96776.30
2018-09-10T07:52:45.933Z,96781.48
2018-09-10T07:55:16.117Z,96788.00
2018-09-10T07:57:46.269Z,96788.98
2018-09-10T08:00:16.661Z,96785.81
2018-09-10T08:02:47.011Z,96783.42
2018-09-10T08:05:17.763Z,96787.58
2018-09-10T08:07:48.247Z,96789.06
2018-09-10T08:10:18.605Z,96791.59
2018-09-10T08:12:49.651Z,96790.25
2018-09-10T08:22:07.898Z,96793.36
2018-09-10T08:24:38.249Z,96786.32
2018-09-10T08:27:08.870Z,96793.59
2018-09-10T08:29:39.213Z,96796.51
2018-09-10T08:32:09.617Z,96792.33
2018-09-10T08:34:40.173Z,96792.89
2018-09-10T08:37:10.629Z,96797.17
2018-09-10T08:39:40.964Z,96800.19
2018-09-10T08:42:11.339Z,96797.89
2018-09-10T08:44:42.399Z,96805.84
2018-09-10T08:47:13.527Z,96804.36
2018-09-10T08:49:44.018Z,96800.50
2018-09-10T08:52:14.481Z,96798.49
2018-09-10T08:54:45.350Z,96798.68
2018-09-10T08:57:15.759Z,96798.40
2018-09-10T08:59:46.227Z,96799.36
2018-09-10T09:02:17.011Z,96798.66
2018-09-10T09:04:47.428Z,96792.58
2018-09-10T09:07:17.829Z,96799.63
2018-09-10T09:09:48.246Z,96797.11
2018-09-10T09:12:18.717Z,96796.56
2018-09-10T09:14:49.072Z,96796.88
2018-09-10T09:17:19.521Z,96791.87
2018-09-10T09:19:50.316Z,96793.17
2018-09-10T09:22:20.639Z,96799.84
2018-09-10T09:24:51.328Z,96790.89
2018-09-10T09:27:21.850Z,96793.29
2018-09-10T09:29:52.199Z,96801.34
2018-09-10T09:32:22.720Z,96802.97
2018-09-10T09:34:56.541Z,96800.75
2018-09-10T09:37:32.199Z,96803.16
2018-09-10T09:40:07.606Z,96797.70
2018-09-10T09:42:43.313Z,96799.63
2018-09-10T09:45:18.972Z,96800.73
2018-09-10T09:47:49.667Z,96792.11
2018-09-10T09:50:20.099Z,96787.31
2018-09-10T09:52:50.854Z,96795.20
2018-09-10T09:55:21.230Z,96797.41
2018-09-10T09:57:51.731Z,96803.98
2018-09-10T10:00:27.311Z,96797.44
2018-09-10T10:03:01.870Z,96794.01
2018-09-10T10:05:32.219Z,96794.99
2018-09-10T10:08:03.104Z,96791.42
2018-09-10T10:10:33.567Z,96789.05
2018-09-10T10:13:04.016Z,96789.98
2018-09-10T10:15:34.971Z,96781.66
2018-09-10T10:18:05.447Z,96772.33
2018-09-10T10:20:35.908Z,96769.48
2018-09-10T10:23:07.605Z,96766.45
2018-09-10T10:25:37.956Z,96781.17
2018-09-10T10:28:08.360Z,96776.72
2018-09-10T10:30:39.012Z,96780.34
2018-09-10T10:33:09.412Z,96775.86
2018-09-10T10:35:39.857Z,96780.19
2018-09-10T10:38:10.180Z,96771.30
2018-09-10T10:40:40.566Z,96775.23
2018-09-10T10:43:11.004Z,96772.33
2018-09-10T10:45:41.484Z,96777.50
2018-09-10T10:48:11.933Z,96771.49
2018-09-10T10:50:42.889Z,96778.78
2018-09-10T10:53:13.280Z,96780.70
2018-09-10T10:55:43.576Z,96773.65
2018-09-10T10:58:14.038Z,96771.73
2018-09-10T11:00:44.472Z,96775.63
2018-09-10T11:03:14.781Z,96774.34
2018-09-10T11:05:45.088Z,96771.91
2018-09-10T11:08:15.388Z,96764.08
2018-09-10T11:10:45.763Z,96765.66
2018-09-10T11:13:16.072Z,96769.70
2018-09-10T11:15:46.651Z,96769.41
2018-09-10T11:18:17.029Z,96770.08
2018-09-10T11:20:47.095Z,96773.66
2018-09-10T11:23:17.426Z,96768.80
2018-09-10T11:25:47.493Z,96767.06
2018-09-10T11:28:17.596Z,96763.83
2018-09-10T11:30:47.696Z,96761.90
2018-09-10T11:33:17.831Z,96766.44
2018-09-10T11:35:47.947Z,96762.27
2018-09-10T11:38:18.060Z,96764.42
2018-09-10T11:40:48.262Z,96766.29
2018-09-10T11:43:18.410Z,96772.91
2018-09-10T11:45:48.676Z,96765.62
2018-09-10T11:48:18.948Z,96756.92
2018-09-10T11:50:49.420Z,96756.95
2018-09-10T11:53:19.746Z,96756.55
2018-09-10T11:55:50.459Z,96761.85
2018-09-10T11:58:20.722Z,96761.92
2018-09-10T12:00:51.467Z,96763.23
2018-09-10T12:03:21.851Z,96757.27
2018-09-10T12:05:51.984Z,96762.89
2018-09-10T12:08:22.074Z,96758.98
2018-09-10T12:10:52.276Z,96761.56
2018-09-10T12:13:22.365Z,96769.09
2018-09-10T12:15:52.452Z,96761.34
2018-09-10T12:18:22.791Z,96757.87
2018-09-10T12:20:52.808Z,96758.19
2018-09-10T12:23:23.222Z,96758.77
2018-09-10T12:25:53.271Z,96756.92
2018-09-10T12:28:23.334Z,96755.19
2018-09-10T12:30:53.914Z,96753.98
2018-09-10T12:33:24.021Z,96751.18
2018-09-10T12:35:55.469Z,96750.59
2018-09-10T12:38:26.263Z,96755.06
2018-09-10T12:40:56.536Z,96746.75
2018-09-10T12:43:27.435Z,96748.44
2018-09-10T12:45:57.657Z,96744.11
2018-09-10T12:48:28.039Z,96742.06
2018-09-10T12:50:58.449Z,96734.29
2018-09-10T12:53:28.593Z,96737.45
2018-09-10T12:55:58.679Z,96735.91
2018-09-10T12:58:28.735Z,96739.85
2018-09-10T13:00:59.176Z,96732.38
2018-09-10T13:03:29.265Z,96730.08
2018-09-10T13:05:59.288Z,96734.18
2018-09-10T13:08:29.357Z,96721.36
2018-09-10T13:10:59.460Z,96723.02
2018-09-10T13:13:29.964Z,96715.69
2018-09-10T13:16:00.009Z,96714.44
2018-09-10T13:18:30.126Z,96714.09
2018-09-10T13:21:00.168Z,96709.28
2018-09-10T13:23:30.232Z,96716.61
2018-09-10T13:26:00.307Z,96711.67
2018-09-10T13:28:30.401Z,96718.69
2018-09-10T13:31:00.776Z,96719.16
2018-09-10T13:33:31.034Z,96719.28
2018-09-10T13:36:01.115Z,96711.91
2018-09-10T13:38:32.533Z,96707.81
2018-09-10T13:41:03.051Z,96707.86
2018-09-10T13:43:33.129Z,96700.73
2018-09-10T13:46:03.221Z,96693.33
2018-09-10T13:48:33.545Z,96691.06
2018-09-10T13:51:03.983Z,96693.67
2018-09-10T13:53:34.052Z,96687.52
2018-09-10T13:56:04.455Z,96692.21
2018-09-10T13:58:34.477Z,96690.44
2018-09-10T14:01:04.525Z,96684.06
2018-09-10T14:03:34.916Z,96682.30
2018-09-10T14:06:05.000Z,96683.34
2018-09-10T14:08:35.081Z,96680.64
2018-09-10T14:11:05.373Z,96671.60
2018-09-10T14:13:35.611Z,96675.23
2018-09-10T14:16:05.840Z,96678.59
2018-09-10T14:18:36.902Z,96677.91
2018-09-10T14:21:07.427Z,96673.29
2018-09-10T14:23:37.745Z,96669.90
2018-09-10T14:26:08.244Z,96673.29
2018-09-10T14:28:38.571Z,96666.61
2018-09-10T14:31:08.877Z,96671.04
2018-09-10T14:33:39.028Z,96670.83
2018-09-10T14:36:09.103Z,96668.78
2018-09-10T14:38:39.208Z,96675.25
2018-09-10T14:41:09.749Z,96672.78
2018-09-10T14:43:39.891Z,96671.05
2018-09-10T14:46:10.141Z,96675.72
2018-09-10T14:48:40.229Z,96670.63
2018-09-10T14:51:10.485Z,96679.50
2018-09-10T14:53:40.758Z,96671.53
2018-09-10T14:56:11.009Z,96677.29
2018-09-10T14:58:41.686Z,96674.56
2018-09-10T15:01:12.124Z,96679.12
2018-09-10T15:03:42.214Z,96677.98
2018-09-10T15:06:12.298Z,96676.22
2018-09-10T15:08:42.490Z,96676.44
2018-09-10T15:11:12.653Z,96675.86
2018-09-10T15:13:42.677Z,96673.48
2018-09-10T15:16:13.043Z,96665.06
2018-09-10T15:18:43.175Z,96667.24
2018-09-10T15:21:13.358Z,96669.73
2018-09-10T15:23:43.409Z,96668.88
2018-09-10T15:26:13.576Z,96663.30
2018-09-10T15:28:43.800Z,96664.94
2018-09-10T15:31:14.284Z,96664.10
2018-09-10T15:33:44.322Z,96656.27
2018-09-10T15:36:14.352Z,96659.58
2018-09-10T15:38:44.400Z,96664.16
2018-09-10T15:41:14.639Z,96659.84
2018-09-10T15:43:45.089Z,96665.54
2018-09-10T15:46:15.493Z,96664.58
2018-09-10T15:48:46.161Z,96660.10
2018-09-10T15:51:16.245Z,96665.92
2018-09-10T15:53:46.871Z,96664.83
2018-09-10T15:56:17.236Z,96663.05
2018-09-10T15:58:47.345Z,96666.69
2018-09-10T16:01:17.394Z,96664.80
2018-09-10T16:03:47.835Z,96657.77
2018-09-10T16:06:17.927Z,96658.50
2018-09-10T16:08:48.255Z,96659.55
2018-09-10T16:11:18.616Z,96659.94
2018-09-10T16:13:48.736Z,96657.61
2018-09-10T16:16:18.798Z,96651.98
2018-09-10T16:18:48.882Z,96655.63
2018-09-10T16:21:19.257Z,96650.98
2018-09-10T16:23:49.306Z,96655.30
2018-09-10T16:26:19.643Z,96656.01
2018-09-10T16:28:50.115Z,96666.14
2018-09-10T16:31:20.490Z,96665.00
2018-09-10T16:33:50.952Z,96661.81
2018-09-10T16:36:21.451Z,96656.55
2018-09-10T16:38:51.844Z,96659.96
2018-09-10T16:41:22.212Z,96662.70
2018-09-10T16:43:52.815Z,96661.70
2018-09-10T16:46:23.169Z,96662.45
2018-09-10T16:48:54.185Z,96661.30
2018-09-10T16:51:24.577Z,96670.98
2018-09-10T16:53:55.014Z,96670.23
2018-09-10T16:56:25.510Z,96670.41
2018-09-10T16:58:55.867Z,96673.08
2018-09-10T17:01:26.952Z,96675.23
2018-09-10T17:03:57.348Z,96667.34
2018-09-10T17:06:28.845Z,96666.42
2018-09-10T17:08:59.213Z,96665.48
2018-09-10T17:11:29.668Z,96661.00
2018-09-10T17:14:00.071Z,96660.69
2018-09-10T17:16:30.668Z,96665.64
2018-09-10T17:19:01.367Z,96670.77
2018-09-10T17:21:32.554Z,96665.42
2018-09-10T17:24:03.176Z,96667.12
2018-09-10T17:26:33.600Z,96666.81
2018-09-10T17:29:04.004Z,96668.82
2018-09-10T17:31:34.421Z,96668.35
2018-09-10T17:34:05.307Z,96674.36
2018-09-10T17:36:35.644Z,96676.97
2018-09-10T17:39:08.427Z,96673.70
2018-09-10T17:41:38.843Z,96672.39
2018-09-10T17:44:09.273Z,96672.28
2018-09-10T17:46:39.678Z,96679.62
2018-09-10T17:49:10.238Z,96684.35
2018-09-10T17:51:40.953Z,96694.63
2018-09-10T17:54:11.426Z,96696.70
2018-09-10T17:56:42.203Z,96701.72
2018-09-10T17:59:12.577Z,96706.03
2018-09-10T18:01:42.979Z,96713.47
2018-09-10T18:04:13.360Z,96709.06
2018-09-10T18:06:43.693Z,96707.26
2018-09-10T18:09:14.157Z,96716.83
2018-09-10T18:11:44.544Z,96716.94
2018-09-10T18:14:14.888Z,96720.04
2018-09-10T18:16:45.300Z,96727.36
2018-09-10T18:19:15.799Z,96723.83
2018-09-10T18:21:46.511Z,96735.16
2018-09-10T18:24:16.917Z,96736.82
2018-09-10T18:26:47.339Z,96740.95
2018-09-10T18:29:17.704Z,96739.29
2018-09-10T18:31:48.141Z,96747.33
2018-09-10T18:34:19.200Z,96748.11
2018-09-10T18:36:49.701Z,96754.03
2018-09-10T18:39:20.335Z,96749.50
2018-09-10T18:41:50.772Z,96749.45
2018-09-10T18:44:21.425Z,96750.66
2018-09-10T18:46:52.202Z,96764.66
2018-09-10T18:49:22.649Z,96766.72
2018-09-10T18:51:53.019Z,96763.64
2018-09-10T18:55:04.545Z,96771.13
2018-09-10T18:57:34.951Z,96766.62
2018-09-10T19:00:06.013Z,96771.40
2018-09-10T19:02:36.445Z,96770.85
2018-09-10T19:05:06.905Z,96778.04
2018-09-10T19:11:13.403Z,96773.80
2018-09-10T19:13:43.807Z,96776.04
2018-09-10T19:16:14.605Z,96768.13
2018-09-10T19:18:45.036Z,96774.10
2018-09-10T19:21:15.453Z,96772.52
2018-09-10T19:23:45.942Z,96776.27
2018-09-10T19:26:16.321Z,96785.59
2018-09-10T19:28:46.718Z,96787.39
2018-09-10T19:31:17.217Z,96795.78
2018-09-10T19:33:47.657Z,96796.09
2018-09-10T19:36:18.095Z,96795.91
2018-09-10T19:38:48.539Z,96802.41
2018-09-10T19:41:18.859Z,96810.25
2018-09-10T19:43:49.578Z,96811.10
2018-09-10T19:46:19.979Z,96816.00
2018-09-10T19:52:26.488Z,96819.11
2018-09-10T19:54:56.948Z,96817.09
2018-09-10T19:57:27.650Z,96829.56
2018-09-10T19:59:58.025Z,96821.41
2018-09-10T20:02:28.560Z,96820.96
2018-09-10T20:04:59.573Z,96818.10
2018-09-10T20:07:30.792Z,96819.20
2018-09-10T20:10:01.304Z,96822.46
2018-09-10T20:12:31.816Z,96822.02
2018-09-10T20:15:02.287Z,96814.68
2018-09-10T20:17:32.911Z,96824.56
2018-09-10T20:20:03.284Z,96821.70
2018-09-10T20:22:33.704Z,96816.77
2018-09-10T20:25:04.160Z,96816.86
2018-09-10T20:27:34.907Z,96821.47
2018-09-10T20:30:05.885Z,96822.50
2018-09-10T20:32:36.338Z,96823.09
2018-09-10T20:35:07.254Z,96821.07
2018-09-10T20:37:37.283Z,96826.05
2018-09-10T20:40:07.731Z,96824.87
2018-09-10T20:42:38.147Z,96823.08
2018-09-10T20:45:09.316Z,96818.16
2018-09-10T20:47:40.249Z,96819.40
2018-09-10T20:50:11.022Z,96819.34
2018-09-10T20:52:40.755Z,96818.27
2018-09-10T20:55:11.226Z,96813.28
2018-09-10T20:57:41.858Z,96810.66
2018-09-10T21:00:12.284Z,96814.61
2018-09-10T21:02:42.722Z,96817.97
2018-09-10T21:05:13.084Z,96816.94
2018-09-10T21:07:43.546Z,96816.45
2018-09-10T21:10:13.470Z,96809.55
2018-09-10T21:12:43.831Z,96817.78
2018-09-10T21:15:14.321Z,96818.27
2018-09-10T21:17:45.095Z,96815.75
2018-09-10T21:20:14.884Z,96820.53
2018-09-10T21:22:44.779Z,96817.13
2018-09-10T21:25:15.239Z,96820.23
2018-09-10T21:27:45.648Z,96820.42
2018-09-10T21:30:16.012Z,96821.67
2018-09-10T21:32:46.472Z,96829.59
2018-09-10T21:35:16.860Z,96829.70
2018-09-10T21:37:47.501Z,96830.72
2018-09-10T21:40:17.864Z,96834.03
2018-09-10T21:42:48.444Z,96826.05
2018-09-10T21:45:18.824Z,96822.70
2018-09-10T21:47:49.890Z,96824.67
2018-09-10T21:50:20.412Z,96826.84
2018-09-10T21:52:50.743Z,96834.33
2018-09-10T21:55:21.186Z,96840.14
2018-09-10T21:57:51.516Z,96833.25
2018-09-10T22:00:22.087Z,96833.09
2018-09-10T22:02:52.839Z,96830.08
2018-09-10T22:05:22.924Z,96828.28
2018-09-10T22:07:53.268Z,96826.00
2018-09-10T22:10:23.628Z,96824.78
2018-09-10T22:12:53.983Z,96828.27
2018-09-10T22:15:24.712Z,96830.78
2018-09-10T22:17:55.609Z,96828.09
2018-09-10T22:20:26.102Z,96828.28
2018-09-10T22:22:56.596Z,96827.38
2018-09-10T22:25:27.010Z,96830.37
2018-09-10T22:27:57.341Z,96834.51
2018-09-10T22:30:27.670Z,96837.50
2018-09-10T22:32:58.025Z,96834.48
2018-09-10T22:35:28.389Z,96832.88
2018-09-10T22:37:58.292Z,96833.95
2018-09-10T22:40:28.639Z,96836.34
2018-09-10T22:42:59.003Z,96833.64
2018-09-10T22:45:29.351Z,96835.73
2018-09-10T22:47:59.119Z,96838.29
2018-09-10T22:50:28.897Z,96834.58
2018-09-10T22:52:58.661Z,96840.73
2018-09-10T22:55:28.971Z,96824.66
2018-09-10T22:57:58.765Z,96836.63
2018-09-10T23:00:28.611Z,96843.09
2018-09-10T23:02:58.411Z,96843.77
2018-09-10T23:05:28.238Z,96841.35
2018-09-10T23:07:58.051Z,96840.20
2018-09-10T23:10:27.857Z,96844.77
2018-09-10T23:12:57.639Z,96850.17
2018-09-10T23:15:27.439Z,96847.58
2018-09-10T23:17:57.215Z,96849.75
2018-09-10T23:20:27.092Z,96848.92
2018-09-10T23:22:57.421Z,96855.11
2018-09-10T23:25:27.229Z,96849.98
2018-09-10T23:27:56.994Z,96853.37
2018-09-10T23:30:26.787Z,96852.16
2018-09-10T23:32:56.622Z,96843.59
2018-09-10T23:35:26.387Z,96855.66
2018-09-10T23:37:56.742Z,96852.94
2018-09-10T23:40:27.122Z,96856.52
2018-09-10T23:42:56.888Z,96851.25
2018-09-10T23:45:26.752Z,96857.51
2018-09-10T23:47:56.512Z,96856.45
2018-09-10T23:50:26.287Z,96855.34
2018-09-10T23:52:56.115Z,96848.56
2018-09-10T23:55:25.875Z,96847.14
2018-09-10T23:57:55.742Z,96852.47
